Elmer, Pennsylvania
Current Conditions -  °F | °C
As of 5:15 PM on Tuesday 25 Nov 2014 (Local Time) from KN38 Reporting Station
Clear Clear  
Wind Chill:   Ceiling: Unl
Heat Index:   Visibility: 10mi
Dew Point: -4°   Wind: 9mph
Humidity: 53%   Direction: 240°WSW
Pressure: 30"   Gusts: NA
Location:  41.9252°N, 77.5198°W
Report Text: KN38 252215Z AUTO 24008KT 10SM CLR 05/M04 A3000 RMK AO2
Loading
Personal Weather Stations






























Interactive Weather Map New forecast layout! Learn more

10-Day Weather Forecast

Advertisements
Track Severe Weather on mobile